createdAt,value
2017-10-31T00:01:54.693Z,71.40
2017-10-31T00:04:22.224Z,71.40
2017-10-31T00:06:49.809Z,71.60
2017-10-31T00:09:17.332Z,71.60
2017-10-31T00:11:44.860Z,72.10
2017-10-31T00:14:12.440Z,71.10
2017-10-31T00:16:40.000Z,71.70
2017-10-31T00:19:08.316Z,72.00
2017-10-31T00:21:35.875Z,71.30
2017-10-31T00:24:03.399Z,70.70
2017-10-31T00:26:30.923Z,70.90
2017-10-31T00:28:58.468Z,71.20
2017-10-31T00:31:26.005Z,71.20
2017-10-31T00:33:53.552Z,71.10
2017-10-31T00:36:21.233Z,70.80
2017-10-31T00:38:48.756Z,71.90
2017-10-31T00:41:16.288Z,71.20
2017-10-31T00:43:43.893Z,71.60
2017-10-31T00:46:11.423Z,71.50
2017-10-31T00:48:38.951Z,71.10
2017-10-31T00:51:06.488Z,70.20
2017-10-31T00:53:34.012Z,72.10
2017-10-31T00:56:01.531Z,71.00
2017-10-31T00:58:29.108Z,71.60
2017-10-31T01:00:56.637Z,71.00
2017-10-31T01:03:24.920Z,71.90
2017-10-31T01:05:52.465Z,71.20
2017-10-31T01:08:19.985Z,71.10
2017-10-31T01:10:49.808Z,71.10
2017-10-31T01:13:17.653Z,72.00
2017-10-31T01:15:45.191Z,71.00
2017-10-31T01:18:12.716Z,71.50
2017-10-31T01:20:41.023Z,72.00
2017-10-31T01:23:08.551Z,71.90
2017-10-31T01:25:36.080Z,71.90
2017-10-31T01:28:05.970Z,71.00
2017-10-31T01:30:36.595Z,71.50
2017-10-31T01:33:04.909Z,71.90
2017-10-31T01:35:32.433Z,71.40
2017-10-31T01:37:59.953Z,71.40
2017-10-31T01:40:27.501Z,70.90
2017-10-31T01:42:55.441Z,71.40
2017-10-31T01:45:23.000Z,71.00
2017-10-31T01:47:50.546Z,71.50
2017-10-31T01:50:18.071Z,71.30
2017-10-31T01:52:48.683Z,72.90
2017-10-31T01:55:17.873Z,72.10
2017-10-31T01:57:51.197Z,72.10
2017-10-31T02:00:20.814Z,71.00
2017-10-31T02:02:50.868Z,71.20
2017-10-31T02:05:18.422Z,71.50
2017-10-31T02:07:46.014Z,71.90
2017-10-31T02:10:13.539Z,71.40
2017-10-31T02:12:41.061Z,71.00
2017-10-31T02:15:08.685Z,70.60
2017-10-31T02:17:36.224Z,70.10
2017-10-31T02:20:03.890Z,70.20
2017-10-31T02:22:31.463Z,71.30
2017-10-31T02:24:59.448Z,71.30
2017-10-31T02:27:26.976Z,71.00
2017-10-31T02:29:54.533Z,71.40
2017-10-31T02:32:22.063Z,70.90
2017-10-31T02:34:49.630Z,71.50
2017-10-31T02:37:17.944Z,72.40
2017-10-31T02:39:45.512Z,71.80
2017-10-31T02:42:13.036Z,72.30
2017-10-31T02:44:40.587Z,71.70
2017-10-31T02:47:08.116Z,72.30
2017-10-31T02:49:35.646Z,71.10
2017-10-31T02:52:03.211Z,72.00
2017-10-31T02:54:30.749Z,72.20
2017-10-31T02:56:58.278Z,71.80
2017-10-31T02:59:25.858Z,71.50
2017-10-31T03:01:53.416Z,72.10
2017-10-31T03:04:20.948Z,71.80
2017-10-31T03:06:48.483Z,72.00
2017-10-31T03:09:16.108Z,72.70
2017-10-31T03:11:43.637Z,72.10
2017-10-31T03:14:11.179Z,72.70
2017-10-31T03:16:38.706Z,71.90
2017-10-31T03:19:07.143Z,73.20
2017-10-31T03:21:34.706Z,71.40
2017-10-31T03:24:02.216Z,70.60
2017-10-31T03:26:29.761Z,71.40
2017-10-31T03:28:57.308Z,72.40
2017-10-31T03:31:24.832Z,71.90
2017-10-31T03:33:52.354Z,72.30
2017-10-31T03:36:19.916Z,72.00
2017-10-31T03:38:47.445Z,71.60
2017-10-31T03:41:14.992Z,72.70
2017-10-31T03:43:42.544Z,72.40
2017-10-31T03:46:10.059Z,72.10
2017-10-31T03:48:37.589Z,72.50
2017-10-31T03:51:05.144Z,72.60
2017-10-31T03:53:32.673Z,72.10
2017-10-31T03:56:00.237Z,72.30
2017-10-31T03:58:28.554Z,73.00
2017-10-31T04:00:56.076Z,72.10
2017-10-31T04:03:23.601Z,72.10
2017-10-31T04:05:51.625Z,72.50
2017-10-31T04:08:20.524Z,72.10
2017-10-31T04:10:48.073Z,71.30
2017-10-31T04:13:19.011Z,72.20
2017-10-31T04:15:48.999Z,72.10
2017-10-31T04:18:20.370Z,72.70
2017-10-31T04:20:50.456Z,73.10
2017-10-31T04:23:21.457Z,72.90
2017-10-31T04:25:52.550Z,72.30
2017-10-31T04:28:22.783Z,72.30
2017-10-31T04:30:52.722Z,71.40
2017-10-31T04:33:22.706Z,71.40
2017-10-31T04:35:55.984Z,71.00
2017-10-31T04:38:26.118Z,71.40
2017-10-31T04:40:55.894Z,71.30
2017-10-31T04:43:27.522Z,72.40
2017-10-31T04:45:55.443Z,72.10
2017-10-31T04:48:25.417Z,72.00
2017-10-31T04:50:55.656Z,73.00
2017-10-31T04:53:26.703Z,71.80
2017-10-31T04:55:56.921Z,71.70
2017-10-31T04:58:27.251Z,71.80
2017-10-31T05:00:57.405Z,72.30
2017-10-31T05:03:27.605Z,71.90
2017-10-31T05:05:57.995Z,71.90
2017-10-31T05:08:28.133Z,71.80
2017-10-31T05:10:59.158Z,72.00
2017-10-31T05:13:29.127Z,72.10
2017-10-31T05:15:58.869Z,71.40
2017-10-31T05:18:28.697Z,71.70
2017-10-31T05:20:58.426Z,71.50
2017-10-31T05:23:28.826Z,72.50
2017-10-31T05:25:58.872Z,71.40
2017-10-31T05:28:29.816Z,72.00
2017-10-31T05:31:03.563Z,72.00
2017-10-31T05:33:34.531Z,71.30
2017-10-31T05:36:04.467Z,71.10
2017-10-31T05:38:35.515Z,71.90
2017-10-31T05:41:06.264Z,70.60
2017-10-31T05:43:35.928Z,72.00
2017-10-31T05:46:05.978Z,71.00
2017-10-31T05:48:35.949Z,71.20
2017-10-31T05:51:05.833Z,71.60
2017-10-31T05:53:35.768Z,71.10
2017-10-31T05:56:07.690Z,71.20
2017-10-31T05:58:37.689Z,70.50
2017-10-31T06:01:07.645Z,71.40
2017-10-31T06:03:37.561Z,71.40
2017-10-31T06:06:07.756Z,72.50
2017-10-31T06:08:37.525Z,71.60
2017-10-31T06:11:08.064Z,72.90
2017-10-31T06:13:38.089Z,71.70
2017-10-31T06:16:07.840Z,72.20
2017-10-31T06:18:37.712Z,72.00
2017-10-31T06:21:07.632Z,72.00
2017-10-31T06:23:41.604Z,71.70
2017-10-31T06:26:16.232Z,72.40
2017-10-31T06:28:52.587Z,73.00
2017-10-31T06:34:34.096Z,72.70
2017-10-31T06:37:10.121Z,72.60
2017-10-31T06:39:38.852Z,71.50
2017-10-31T06:42:08.918Z,71.40
2017-10-31T06:44:38.836Z,71.90
2017-10-31T06:47:10.011Z,72.00
2017-10-31T06:49:40.693Z,71.00
2017-10-31T06:52:11.477Z,71.90
2017-10-31T06:54:39.021Z,71.10
2017-10-31T06:57:06.581Z,71.30
2017-10-31T06:59:34.094Z,72.30
2017-10-31T07:02:01.624Z,72.20
2017-10-31T07:04:29.180Z,71.40
2017-10-31T07:06:56.704Z,71.70
2017-10-31T07:09:24.223Z,72.20
2017-10-31T07:11:52.515Z,72.60
2017-10-31T07:14:22.486Z,71.70
2017-10-31T07:16:51.526Z,73.00
2017-10-31T07:19:20.142Z,72.40
2017-10-31T07:21:47.790Z,72.60
2017-10-31T07:24:15.835Z,73.00
2017-10-31T07:26:44.149Z,72.60
2017-10-31T07:29:11.678Z,72.00
2017-10-31T07:31:39.199Z,72.30
2017-10-31T07:34:07.571Z,74.10
2017-10-31T07:36:35.096Z,73.40
2017-10-31T07:39:03.383Z,74.00
2017-10-31T07:41:31.232Z,73.20
2017-10-31T07:43:58.943Z,73.30
2017-10-31T07:46:26.480Z,73.20
2017-10-31T07:49:08.778Z,73.50
2017-10-31T07:51:41.986Z,74.10
2017-10-31T07:54:09.683Z,73.30
2017-10-31T07:56:37.213Z,73.80
2017-10-31T07:59:04.746Z,73.90
2017-10-31T08:01:32.315Z,73.50
2017-10-31T08:04:00.635Z,74.90
2017-10-31T08:06:28.845Z,74.60
2017-10-31T08:08:56.422Z,75.00
2017-10-31T08:11:25.045Z,74.30
2017-10-31T08:13:52.572Z,75.10
2017-10-31T08:16:20.126Z,73.30
2017-10-31T08:18:47.656Z,73.50
2017-10-31T08:21:15.203Z,73.20
2017-10-31T08:23:42.879Z,73.20
2017-10-31T08:26:11.324Z,73.00
2017-10-31T08:28:38.957Z,73.40
2017-10-31T08:31:06.720Z,73.60
2017-10-31T08:33:34.371Z,74.20
2017-10-31T08:36:02.049Z,73.30
2017-10-31T08:38:29.676Z,73.10
2017-10-31T08:40:57.462Z,73.10
2017-10-31T08:43:25.369Z,72.20
2017-10-31T08:45:53.170Z,71.10
2017-10-31T08:48:20.891Z,71.10
2017-10-31T08:50:48.543Z,70.50
2017-10-31T08:53:16.231Z,68.90
2017-10-31T08:55:43.808Z,68.00
2017-10-31T08:58:11.519Z,67.50
2017-10-31T09:00:39.298Z,66.20
2017-10-31T09:03:07.180Z,65.80
2017-10-31T09:05:35.110Z,64.70
2017-10-31T09:08:03.130Z,64.30
2017-10-31T09:10:30.781Z,64.70
2017-10-31T09:12:58.495Z,64.90
2017-10-31T09:15:26.113Z,65.20
2017-10-31T09:17:57.138Z,65.20
2017-10-31T09:20:24.730Z,65.50
2017-10-31T09:22:53.695Z,65.60
2017-10-31T09:25:21.260Z,65.10
2017-10-31T09:27:49.623Z,65.50
2017-10-31T09:30:17.181Z,65.40
2017-10-31T09:32:44.702Z,64.30
2017-10-31T09:35:12.997Z,66.70
2017-10-31T09:37:40.544Z,65.70
2017-10-31T09:40:08.831Z,66.40
2017-10-31T09:42:36.347Z,66.10
2017-10-31T09:45:03.880Z,65.90
2017-10-31T09:47:31.402Z,66.90
2017-10-31T09:49:59.699Z,68.10
2017-10-31T09:52:27.241Z,67.30
2017-10-31T09:54:55.614Z,67.70
2017-10-31T09:57:23.201Z,68.60
2017-10-31T09:59:50.776Z,67.80
2017-10-31T10:02:19.067Z,70.30
2017-10-31T10:04:46.579Z,69.00
2017-10-31T10:07:15.089Z,69.70
2017-10-31T10:09:42.621Z,70.60
2017-10-31T10:12:10.158Z,69.80
2017-10-31T10:14:37.715Z,66.60
2017-10-31T10:17:05.258Z,62.00
2017-10-31T10:19:32.813Z,60.40
2017-10-31T10:22:00.368Z,59.20
2017-10-31T10:24:27.922Z,57.90
2017-10-31T10:26:55.649Z,58.00
2017-10-31T10:29:23.266Z,57.30
2017-10-31T10:31:51.577Z,56.80
2017-10-31T10:34:19.133Z,56.30
2017-10-31T10:36:46.678Z,55.50
2017-10-31T10:39:15.253Z,55.00
2017-10-31T10:41:43.571Z,54.10
2017-10-31T10:44:11.162Z,53.00
2017-10-31T10:46:38.781Z,52.50
2017-10-31T10:49:06.301Z,53.90
2017-10-31T10:51:35.823Z,53.10
2017-10-31T10:54:03.379Z,53.00
2017-10-31T10:56:31.016Z,53.30
2017-10-31T10:58:58.580Z,54.40
2017-10-31T11:01:26.128Z,53.70
2017-10-31T11:03:53.702Z,53.70
2017-10-31T11:06:22.031Z,53.60
2017-10-31T11:08:49.580Z,53.20
2017-10-31T11:11:17.103Z,53.10
2017-10-31T11:13:44.678Z,52.90
2017-10-31T11:16:12.199Z,53.50
2017-10-31T11:18:40.498Z,53.70
2017-10-31T11:21:08.062Z,53.30
2017-10-31T11:23:35.625Z,52.70
2017-10-31T11:26:03.156Z,53.00
2017-10-31T11:28:30.735Z,53.00
2017-10-31T11:30:59.040Z,53.40
2017-10-31T11:33:26.573Z,53.10
2017-10-31T11:35:54.138Z,53.40
2017-10-31T11:38:21.689Z,53.20
2017-10-31T11:40:49.253Z,53.90
2017-10-31T11:43:16.812Z,52.70
2017-10-31T11:45:44.340Z,52.30
2017-10-31T11:48:11.891Z,52.70
2017-10-31T11:50:39.485Z,52.40
2017-10-31T11:53:07.017Z,52.50
2017-10-31T11:55:34.552Z,52.50
2017-10-31T11:58:02.894Z,53.10
2017-10-31T12:00:30.422Z,52.60
2017-10-31T12:02:57.968Z,51.80
2017-10-31T12:05:25.578Z,52.50
2017-10-31T12:07:53.120Z,52.20
2017-10-31T12:10:20.657Z,52.80
2017-10-31T12:12:48.215Z,53.70
2017-10-31T12:15:15.752Z,52.90
2017-10-31T12:17:43.275Z,52.90
2017-10-31T12:20:11.591Z,53.00
2017-10-31T12:22:39.117Z,52.50
2017-10-31T12:25:06.642Z,52.00
2017-10-31T12:27:34.206Z,51.60
2017-10-31T12:30:01.746Z,51.90
2017-10-31T12:32:29.275Z,51.60
2017-10-31T12:34:56.831Z,51.80
2017-10-31T12:37:24.357Z,50.00
2017-10-31T12:39:52.643Z,48.90
2017-10-31T12:42:20.190Z,48.40
2017-10-31T12:44:47.727Z,48.80
2017-10-31T12:47:15.261Z,49.40
2017-10-31T12:49:42.875Z,49.80
2017-10-31T12:52:10.503Z,49.10
2017-10-31T12:54:38.884Z,49.90
2017-10-31T12:57:06.456Z,49.40
2017-10-31T12:59:33.984Z,49.10
2017-10-31T13:02:01.531Z,49.20
2017-10-31T13:04:29.148Z,49.90
2017-10-31T13:06:56.764Z,50.00
2017-10-31T13:09:25.237Z,50.30
2017-10-31T13:11:53.125Z,49.60
2017-10-31T13:14:20.779Z,50.60
2017-10-31T13:16:48.495Z,50.20
2017-10-31T13:19:17.089Z,49.90
2017-10-31T13:21:44.783Z,50.00
2017-10-31T13:24:12.317Z,49.60
2017-10-31T13:26:40.384Z,50.30
2017-10-31T13:29:08.366Z,50.10
2017-10-31T13:31:36.436Z,50.20
2017-10-31T13:34:05.144Z,50.20
2017-10-31T13:36:33.354Z,50.00
2017-10-31T13:39:01.229Z,50.50
2017-10-31T13:41:30.088Z,50.60
2017-10-31T13:43:57.993Z,50.20
2017-10-31T13:46:25.521Z,50.10
2017-10-31T13:48:53.313Z,49.60
2017-10-31T13:51:21.320Z,50.20
2017-10-31T13:53:50.608Z,49.80
2017-10-31T13:56:18.231Z,49.50
2017-10-31T13:58:45.891Z,50.00
2017-10-31T14:01:13.470Z,49.70
2017-10-31T14:03:41.554Z,49.70
2017-10-31T14:06:10.341Z,49.80
2017-10-31T14:08:39.820Z,50.00
2017-10-31T14:11:09.565Z,49.80
2017-10-31T14:13:38.371Z,49.80
2017-10-31T14:16:07.214Z,49.40
2017-10-31T14:18:35.472Z,50.40
2017-10-31T14:21:04.754Z,50.40
2017-10-31T14:23:33.201Z,50.10
2017-10-31T14:26:02.476Z,51.00
2017-10-31T14:28:30.779Z,50.40
2017-10-31T14:31:00.389Z,50.10
2017-10-31T14:33:29.325Z,48.90
2017-10-31T14:35:57.943Z,48.80
2017-10-31T14:38:26.032Z,50.00
2017-10-31T14:40:54.211Z,49.80
2017-10-31T14:43:21.869Z,49.80
2017-10-31T14:45:50.120Z,50.00
2017-10-31T14:48:18.948Z,49.20
2017-10-31T14:50:47.408Z,49.20
2017-10-31T14:53:15.807Z,49.70
2017-10-31T14:55:44.923Z,50.60
2017-10-31T14:58:12.651Z,50.20
2017-10-31T15:00:40.634Z,50.40
2017-10-31T15:03:09.712Z,50.60
2017-10-31T15:05:39.435Z,51.20
2017-10-31T15:08:07.525Z,51.30
2017-10-31T15:10:36.153Z,52.00
2017-10-31T15:13:04.348Z,51.30
2017-10-31T15:15:32.498Z,51.80
2017-10-31T15:18:00.994Z,51.50
2017-10-31T15:20:28.544Z,52.20
2017-10-31T15:22:56.295Z,52.30
2017-10-31T15:25:24.282Z,52.50
2017-10-31T15:27:52.066Z,52.40
2017-10-31T15:30:20.941Z,52.40
2017-10-31T15:32:50.147Z,53.50
2017-10-31T15:35:18.983Z,53.80
2017-10-31T15:37:47.752Z,53.60
2017-10-31T15:40:16.253Z,53.80
2017-10-31T15:42:44.176Z,53.40
2017-10-31T15:45:12.606Z,53.60
2017-10-31T15:47:41.020Z,53.50
2017-10-31T15:50:08.581Z,53.50
2017-10-31T15:52:38.440Z,54.60
2017-10-31T15:55:06.529Z,54.50
2017-10-31T15:57:34.305Z,54.50
2017-10-31T16:00:02.941Z,55.20
2017-10-31T16:02:30.706Z,55.40
2017-10-31T16:04:58.769Z,54.80
2017-10-31T16:07:27.140Z,56.80
2017-10-31T16:09:54.716Z,56.40
2017-10-31T16:12:22.231Z,55.90
2017-10-31T16:14:51.100Z,56.60
2017-10-31T16:17:19.457Z,57.00
2017-10-31T16:19:47.697Z,56.50
2017-10-31T16:22:15.548Z,56.10
2017-10-31T16:24:43.476Z,56.30
2017-10-31T16:27:11.910Z,56.90
2017-10-31T16:29:39.798Z,56.80
2017-10-31T16:32:08.381Z,57.00
2017-10-31T16:34:37.703Z,57.00
2017-10-31T16:37:05.991Z,57.40
2017-10-31T16:39:34.705Z,57.10
2017-10-31T16:42:03.213Z,57.30
2017-10-31T16:44:32.610Z,58.20
2017-10-31T16:47:01.298Z,57.30
2017-10-31T16:49:29.798Z,57.60
2017-10-31T16:51:58.366Z,57.60
2017-10-31T16:54:27.357Z,57.30
2017-10-31T16:56:55.963Z,57.70
2017-10-31T16:59:25.189Z,58.00
2017-10-31T17:01:53.136Z,57.30
2017-10-31T17:04:20.702Z,57.40
2017-10-31T17:06:48.230Z,58.20
2017-10-31T17:09:15.781Z,58.10
2017-10-31T17:11:43.401Z,58.00
2017-10-31T17:14:11.002Z,58.00
2017-10-31T17:16:39.330Z,59.10
2017-10-31T17:19:06.951Z,58.70
2017-10-31T17:21:34.472Z,58.80
2017-10-31T17:24:03.063Z,59.50
2017-10-31T17:26:30.584Z,58.90
2017-10-31T17:28:58.130Z,59.10
2017-10-31T17:31:25.713Z,59.00
2017-10-31T17:33:53.226Z,59.90
2017-10-31T17:36:20.740Z,59.50
2017-10-31T17:38:48.280Z,59.80
2017-10-31T17:41:15.828Z,59.30
2017-10-31T17:43:43.344Z,59.40
2017-10-31T17:46:10.895Z,60.20
2017-10-31T17:48:38.422Z,59.70
2017-10-31T17:51:05.957Z,60.10
2017-10-31T17:53:33.509Z,60.10
2017-10-31T17:56:01.081Z,60.10
2017-10-31T17:58:28.605Z,60.50
2017-10-31T18:00:56.149Z,60.80
2017-10-31T18:03:23.663Z,60.50
2017-10-31T18:05:51.185Z,60.60
2017-10-31T18:08:19.524Z,60.70
2017-10-31T18:10:47.046Z,60.60
2017-10-31T18:13:14.570Z,60.90
2017-10-31T18:15:42.115Z,61.20
2017-10-31T18:18:10.403Z,62.00
2017-10-31T18:20:37.916Z,60.90
2017-10-31T18:23:05.456Z,61.50
2017-10-31T18:25:32.975Z,61.80
2017-10-31T18:28:01.258Z,61.60
2017-10-31T18:30:28.824Z,61.90
2017-10-31T18:32:56.364Z,61.60
2017-10-31T18:35:23.896Z,61.40
2017-10-31T18:37:51.442Z,61.60
2017-10-31T18:40:18.959Z,61.10
2017-10-31T18:42:47.273Z,62.60
2017-10-31T18:45:14.820Z,61.80
2017-10-31T18:47:42.344Z,62.00
2017-10-31T18:50:09.876Z,62.20
2017-10-31T18:52:37.424Z,62.10
2017-10-31T18:55:05.758Z,63.00
2017-10-31T18:57:34.159Z,63.40
2017-10-31T19:00:01.728Z,62.10
2017-10-31T19:02:29.293Z,62.50
2017-10-31T19:04:56.816Z,62.70
2017-10-31T19:07:24.355Z,62.80
2017-10-31T19:09:51.964Z,62.60
2017-10-31T19:12:19.493Z,62.60
2017-10-31T19:14:47.069Z,63.20
2017-10-31T19:17:14.643Z,62.90
2017-10-31T19:19:42.182Z,63.60
2017-10-31T19:22:09.756Z,63.90
2017-10-31T19:24:37.309Z,63.90
2017-10-31T19:27:04.896Z,63.50
2017-10-31T19:29:32.501Z,64.50
2017-10-31T19:32:00.105Z,63.80
2017-10-31T19:34:27.683Z,64.50
2017-10-31T19:36:55.287Z,64.50
2017-10-31T19:39:22.836Z,64.40
2017-10-31T19:41:50.491Z,64.40
2017-10-31T19:44:18.128Z,64.70
2017-10-31T19:46:47.923Z,64.10
2017-10-31T19:49:15.660Z,63.90
2017-10-31T19:51:43.213Z,63.90
2017-10-31T19:54:10.766Z,64.20
2017-10-31T19:56:39.006Z,64.30
2017-10-31T19:59:06.803Z,64.20
2017-10-31T20:01:34.414Z,64.20
2017-10-31T20:04:02.008Z,64.90
2017-10-31T20:06:29.559Z,64.20
2017-10-31T20:08:57.867Z,65.80
2017-10-31T20:11:25.405Z,65.50
2017-10-31T20:13:54.741Z,64.80
2017-10-31T20:16:22.252Z,64.80
2017-10-31T20:18:49.926Z,64.80
2017-10-31T20:21:17.515Z,65.00
2017-10-31T20:23:45.032Z,64.60
2017-10-31T20:26:13.311Z,65.00
2017-10-31T20:28:41.617Z,64.70
2017-10-31T20:31:09.141Z,64.30
2017-10-31T20:33:36.672Z,64.40
2017-10-31T20:36:04.255Z,64.70
2017-10-31T20:38:31.785Z,64.30
2017-10-31T20:40:59.363Z,64.40
2017-10-31T20:43:26.906Z,65.10
2017-10-31T20:45:54.459Z,65.10
2017-10-31T20:48:21.983Z,64.60
2017-10-31T20:50:49.578Z,65.00
2017-10-31T20:53:17.524Z,65.20
2017-10-31T20:55:45.928Z,65.00
2017-10-31T20:58:13.511Z,65.20
2017-10-31T21:00:41.040Z,65.50
2017-10-31T21:03:08.568Z,65.80
2017-10-31T21:05:36.157Z,66.30
2017-10-31T21:08:04.535Z,66.60
2017-10-31T21:10:32.070Z,65.90
2017-10-31T21:13:00.374Z,67.20
2017-10-31T21:15:27.913Z,66.40
2017-10-31T21:17:55.448Z,66.90
2017-10-31T21:20:23.083Z,66.20
2017-10-31T21:22:50.666Z,66.50
2017-10-31T21:25:18.193Z,66.60
2017-10-31T21:27:45.804Z,66.90
2017-10-31T21:30:14.116Z,68.00
2017-10-31T21:32:41.645Z,68.20
2017-10-31T21:35:10.015Z,68.10
2017-10-31T21:37:37.555Z,67.60
2017-10-31T21:40:05.213Z,67.10
2017-10-31T21:42:32.841Z,67.60
2017-10-31T21:45:00.387Z,68.70
2017-10-31T21:47:27.908Z,67.60
2017-10-31T21:49:56.623Z,67.80
2017-10-31T21:52:24.172Z,67.10
2017-10-31T21:54:51.740Z,67.40
2017-10-31T21:57:19.464Z,67.00
2017-10-31T21:59:47.002Z,67.10
2017-10-31T22:02:15.339Z,68.10
2017-10-31T22:04:42.901Z,68.00
2017-10-31T22:07:10.447Z,66.60
2017-10-31T22:09:37.973Z,66.80
2017-10-31T22:12:05.596Z,67.30
2017-10-31T22:14:34.030Z,68.60
2017-10-31T22:17:08.985Z,67.60
2017-10-31T22:19:41.927Z,67.70
2017-10-31T22:22:14.749Z,69.00
2017-10-31T22:24:47.849Z,68.50
2017-10-31T22:27:24.014Z,68.90
2017-10-31T22:29:58.740Z,69.80
2017-10-31T22:32:33.103Z,69.60
2017-10-31T22:35:05.721Z,70.00
2017-10-31T22:37:39.687Z,68.90
2017-10-31T22:40:07.707Z,69.10
2017-10-31T22:42:35.275Z,69.00
2017-10-31T22:45:05.159Z,68.90
2017-10-31T22:47:32.773Z,69.40
2017-10-31T22:50:05.344Z,69.20
2017-10-31T22:52:33.881Z,69.80
2017-10-31T22:55:02.312Z,69.90
2017-10-31T22:57:29.943Z,69.10
2017-10-31T22:59:57.545Z,69.60
2017-10-31T23:02:25.329Z,69.00
2017-10-31T23:04:53.017Z,69.20
2017-10-31T23:07:20.674Z,69.20
2017-10-31T23:09:48.356Z,69.00
2017-10-31T23:12:15.937Z,69.40
2017-10-31T23:14:43.511Z,69.10
2017-10-31T23:17:11.947Z,69.80
2017-10-31T23:19:39.564Z,69.40
2017-10-31T23:22:07.147Z,69.50
2017-10-31T23:24:34.725Z,69.50
2017-10-31T23:27:03.049Z,70.40
2017-10-31T23:29:30.598Z,69.50
2017-10-31T23:31:58.140Z,69.50
2017-10-31T23:34:25.676Z,69.30
2017-10-31T23:36:53.210Z,69.70
2017-10-31T23:39:20.740Z,69.00
2017-10-31T23:41:48.282Z,69.60
2017-10-31T23:44:15.808Z,68.90
2017-10-31T23:46:44.096Z,70.10
2017-10-31T23:49:11.671Z,69.10
2017-10-31T23:51:39.683Z,68.70
2017-10-31T23:54:07.207Z,69.60
2017-10-31T23:56:35.637Z,70.10
2017-10-31T23:59:03.171Z,69.80
